Time;durP1;ratioP1;P1;durP2;ratioP2;P2;SDS_P1;SDS_P2;PMS_P1;PMS_P2;Temp;Humidity;BMP_temperature;BMP_pressure;BME280_temperature;BME280_humidity;BME280_pressure;Samples;Min_cycle;Max_cycle;Signal;HPM_P1;HPM_P2
2022/08/24 00:01:20;;;;;;;8.00;4.20;;;;;;;25.71;40.16;100666.63;5168474;27;20147;-66
2022/08/24 00:03:46;;;;;;;8.98;4.65;;;;;;;25.65;40.24;100664.69;5167370;27;20015;-66
2022/08/24 00:06:15;;;;;;;8.48;4.28;;;;;;;25.63;40.43;100665.91;5167799;27;20094;-65
2022/08/24 00:08:41;;;;;;;9.15;4.15;;;;;;;25.63;40.47;100669.44;5167860;27;20027;-65
2022/08/24 00:11:07;;;;;;;5.10;4.25;;;;;;;25.62;40.35;100667.78;5168254;27;20039;-66
2022/08/24 00:13:33;;;;;;;7.70;4.32;;;;;;;25.60;40.58;100667.13;5167614;27;20022;-66
2022/08/24 00:15:59;;;;;;;8.27;4.60;;;;;;;25.58;40.53;100669.22;5167534;27;20029;-66
2022/08/24 00:18:25;;;;;;;8.52;4.63;;;;;;;25.52;40.61;100670.78;5167826;27;20074;-66
2022/08/24 00:20:52;;;;;;;8.07;4.28;;;;;;;25.50;40.71;100672.88;5167354;27;20029;-65
2022/08/24 00:23:17;;;;;;;7.13;4.63;;;;;;;25.45;41.13;100678.03;5167354;27;20022;-66
2022/08/24 00:25:43;;;;;;;6.22;3.95;;;;;;;25.44;41.01;100674.47;5167611;27;20046;-66
2022/08/24 00:28:08;;;;;;;5.82;4.88;;;;;;;25.44;40.78;100679.88;5167821;27;20023;-66
2022/08/24 00:30:34;;;;;;;8.55;4.93;;;;;;;25.44;41.15;100677.16;5168166;27;20042;-65
2022/08/24 00:33:00;;;;;;;6.25;4.47;;;;;;;25.45;40.83;100678.03;5167683;27;20050;-66
2022/08/24 00:35:26;;;;;;;5.55;4.32;;;;;;;25.43;40.90;100680.09;5167507;27;20039;-66
2022/08/24 00:37:53;;;;;;;4.80;3.90;;;;;;;25.43;41.00;100677.38;5166966;27;20117;-65
2022/08/24 00:40:30;;;;;;;5.65;3.78;;;;;;;25.36;41.11;100679.97;5170619;27;20086;-65
2022/08/24 00:43:02;;;;;;;6.60;4.43;;;;;;;25.29;41.20;100685.31;5171160;27;20143;-65
2022/08/24 00:45:30;;;;;;;4.90;4.15;;;;;;;25.26;41.33;100677.56;5171455;27;20026;-66
2022/08/24 00:48:05;;;;;;;7.68;4.60;;;;;;;25.25;41.25;100678.59;5170909;27;20030;-66
2022/08/24 00:51:10;;;;;;;9.27;4.38;;;;;;;25.23;41.58;100677.94;5170703;27;20030;-66
2022/08/24 00:53:42;;;;;;;5.50;4.10;;;;;;;25.23;41.44;100677.09;5067417;28;20179;-66
2022/08/24 00:56:13;;;;;;;7.75;4.20;;;;;;;25.22;41.45;100678.97;5146721;27;20031;-66
2022/08/24 00:58:50;;;;;;;7.63;4.18;;;;;;;25.21;41.56;100680.03;5170422;27;20014;-66
2022/08/24 01:01:16;;;;;;;8.68;4.40;;;;;;;25.18;41.40;100679.53;5171332;27;20019;-66
2022/08/24 01:03:42;;;;;;;7.13;4.20;;;;;;;25.15;41.76;100675.34;5170481;27;20023;-66
2022/08/24 01:06:09;;;;;;;9.98;4.70;;;;;;;25.11;41.70;100679.47;5171017;27;20216;-66
2022/08/24 01:08:35;;;;;;;4.90;4.03;;;;;;;25.13;41.67;100680.09;5170605;27;20023;-66
2022/08/24 01:11:10;;;;;;;7.20;4.70;;;;;;;25.12;41.74;100683.84;5170821;27;20037;-66
2022/08/24 01:13:36;;;;;;;6.72;4.13;;;;;;;25.11;41.63;100683.03;5171118;27;20113;-66
2022/08/24 01:16:05;;;;;;;5.55;3.78;;;;;;;25.11;41.87;100685.72;5170799;27;20058;-66
2022/08/24 01:18:49;;;;;;;4.80;4.28;;;;;;;25.06;41.97;100677.31;5170482;27;20594;-66
2022/08/24 01:21:20;;;;;;;5.82;4.30;;;;;;;25.03;41.86;100679.56;5169929;27;20026;-66
2022/08/24 01:23:48;;;;;;;8.20;4.03;;;;;;;25.01;42.13;100684.31;5170545;27;20053;-66
2022/08/24 01:26:22;;;;;;;8.68;4.25;;;;;;;24.96;42.19;100677.59;5170930;27;20083;-66
2022/08/24 01:28:54;;;;;;;6.60;4.47;;;;;;;24.93;42.11;100674.44;5170212;27;20030;-66
2022/08/24 01:31:21;;;;;;;8.18;4.18;;;;;;;24.91;42.30;100679.19;5169664;27;20144;-66
2022/08/24 01:33:49;;;;;;;7.60;4.63;;;;;;;24.91;42.21;100681.91;5170795;27;20035;-66
2022/08/24 01:36:38;;;;;;;7.63;4.30;;;;;;;24.88;42.41;100680.41;5170336;27;20038;-65
2022/08/24 01:39:23;;;;;;;7.72;4.40;;;;;;;24.85;42.49;100683.50;5167396;27;20029;-66
2022/08/24 01:41:49;;;;;;;8.32;4.45;;;;;;;24.83;42.28;100678.28;5152298;27;20110;-66
2022/08/24 01:44:15;;;;;;;5.25;3.92;;;;;;;24.79;42.49;100684.22;5169319;27;20223;-66
2022/08/24 01:46:48;;;;;;;5.95;4.00;;;;;;;24.80;42.51;100681.34;5170151;27;20027;-66
2022/08/24 01:49:15;;;;;;;8.48;4.45;;;;;;;24.79;42.81;100682.38;5169900;27;20035;-66
2022/08/24 01:51:42;;;;;;;10.32;4.35;;;;;;;24.80;42.50;100683.22;5169923;27;20162;-65
2022/08/24 01:54:08;;;;;;;5.93;4.15;;;;;;;24.81;42.44;100684.88;5170350;27;20042;-66
2022/08/24 01:56:35;;;;;;;11.57;4.50;;;;;;;24.82;42.48;100686.56;5170350;27;20032;-66
2022/08/24 01:59:01;;;;;;;4.70;3.53;;;;;;;24.76;42.38;100682.75;5170167;27;20033;-66
2022/08/24 02:01:30;;;;;;;8.50;4.05;;;;;;;24.70;42.53;100686.22;5170278;27;20160;-66
2022/08/24 02:04:01;;;;;;;6.85;4.30;;;;;;;24.65;42.99;100685.91;5169673;27;20255;-66
2022/08/24 02:06:26;;;;;;;8.53;4.67;;;;;;;24.64;42.73;100689.63;5169346;27;20054;-66
2022/08/24 02:08:52;;;;;;;5.63;4.30;;;;;;;24.64;42.62;100676.09;5169999;27;20343;-66
2022/08/24 02:11:17;;;;;;;6.78;4.40;;;;;;;24.65;42.69;100681.31;5170132;27;20043;-66
2022/08/24 02:13:43;;;;;;;8.13;4.70;;;;;;;24.67;42.28;100692.78;5169444;27;20030;-66
2022/08/24 02:16:08;;;;;;;5.90;4.38;;;;;;;24.68;42.53;100693.66;5169666;27;20027;-66
2022/08/24 02:18:35;;;;;;;5.78;4.05;;;;;;;24.67;42.40;100687.38;5169547;27;20035;-66
2022/08/24 02:21:01;;;;;;;6.72;4.40;;;;;;;24.65;42.36;100685.91;5169821;27;20061;-66
2022/08/24 02:23:27;;;;;;;9.15;4.57;;;;;;;24.63;42.64;100691.47;5169086;27;20054;-66
2022/08/24 02:25:53;;;;;;;8.93;4.40;;;;;;;24.63;42.51;100691.47;5169771;27;20107;-66
2022/08/24 02:28:19;;;;;;;7.63;4.28;;;;;;;24.59;42.60;100690.19;5169270;27;20038;-66
2022/08/24 02:30:44;;;;;;;6.68;3.67;;;;;;;24.58;42.81;100693.91;5169346;27;20235;-66
2022/08/24 02:33:10;;;;;;;8.13;4.28;;;;;;;24.57;42.60;100694.06;5163967;27;20087;-66
2022/08/24 02:35:36;;;;;;;6.15;4.03;;;;;;;24.53;42.63;100688.19;5168698;27;20042;-66
2022/08/24 02:38:02;;;;;;;6.80;4.20;;;;;;;24.51;42.62;100690.25;5168817;27;20023;-66
2022/08/24 02:40:28;;;;;;;7.25;4.00;;;;;;;24.49;42.70;100689.59;5169544;27;20027;-66
2022/08/24 02:42:54;;;;;;;4.95;3.72;;;;;;;24.51;42.76;100695.66;5169317;27;20057;-66
2022/08/24 02:45:20;;;;;;;9.77;4.20;;;;;;;24.51;42.90;100696.50;5169075;27;20132;-66
2022/08/24 02:47:46;;;;;;;5.93;4.35;;;;;;;24.51;42.65;100707.34;5168983;27;20039;-66
2022/08/24 02:50:14;;;;;;;8.88;4.50;;;;;;;24.54;42.59;100695.31;5169242;27;20127;-66
2022/08/24 02:52:41;;;;;;;7.93;4.55;;;;;;;24.54;42.73;100698.00;5169111;27;20136;-66
2022/08/24 02:55:10;;;;;;;8.30;4.60;;;;;;;24.55;42.52;100696.16;5169221;27;20034;-66
2022/08/24 02:57:35;;;;;;;9.98;4.68;;;;;;;24.55;42.84;100699.69;5169054;27;20018;-66
2022/08/24 03:00:03;;;;;;;12.23;5.30;;;;;;;24.55;43.01;100694.28;5149935;27;20045;-66
2022/08/24 03:02:29;;;;;;;11.30;4.88;;;;;;;24.55;42.89;100696.97;5168283;27;20383;-66
2022/08/24 03:04:54;;;;;;;10.10;4.60;;;;;;;24.52;42.69;100692.78;5168533;27;20039;-66
2022/08/24 03:07:20;;;;;;;9.48;4.30;;;;;;;24.54;42.97;100700.72;5168661;27;20239;-66
2022/08/24 03:09:45;;;;;;;10.45;4.40;;;;;;;24.53;43.09;100705.28;5168876;27;20035;-66
2022/08/24 03:12:11;;;;;;;10.13;5.45;;;;;;;24.50;42.91;100707.50;5168194;27;20353;-66
2022/08/24 03:14:36;;;;;;;14.25;5.45;;;;;;;24.52;42.87;100713.56;5168376;27;20140;-66
2022/08/24 03:17:02;;;;;;;8.48;4.82;;;;;;;24.53;43.21;100710.72;5168765;27;20058;-66
2022/08/24 03:19:28;;;;;;;13.23;5.32;;;;;;;24.53;43.24;100717.97;5168557;27;20058;-66
2022/08/24 03:21:54;;;;;;;12.25;5.35;;;;;;;24.53;43.29;100717.97;5167498;27;20029;-65
2022/08/24 03:24:20;;;;;;;7.78;5.28;;;;;;;24.55;43.33;100717.81;5167878;27;20102;-66
2022/08/24 03:26:46;;;;;;;10.27;5.30;;;;;;;24.56;43.24;100720.31;5168401;27;20050;-66
2022/08/24 03:29:12;;;;;;;10.60;4.90;;;;;;;24.56;43.29;100724.91;5168345;27;20126;-65
2022/08/24 03:31:37;;;;;;;7.20;5.22;;;;;;;24.55;43.46;100721.34;5167549;27;20038;-65
2022/08/24 03:34:03;;;;;;;10.07;4.90;;;;;;;24.52;43.63;100725.25;5168905;27;20143;-66
2022/08/24 03:36:29;;;;;;;8.18;4.78;;;;;;;24.52;43.75;100719.00;5168128;27;20187;-66
2022/08/24 03:38:54;;;;;;;10.30;4.70;;;;;;;24.55;43.48;100725.91;5168559;27;20132;-66
2022/08/24 03:41:20;;;;;;;8.18;4.95;;;;;;;24.54;43.71;100730.47;5167918;27;20026;-66
2022/08/24 03:43:45;;;;;;;8.73;4.80;;;;;;;24.53;44.12;100723.38;5167832;27;20101;-66
2022/08/24 03:46:12;;;;;;;8.18;5.25;;;;;;;24.58;44.33;100728.22;5168237;27;20018;-66
2022/08/24 03:48:39;;;;;;;8.13;5.60;;;;;;;24.61;43.81;100726.03;5168386;27;20062;-66
2022/08/24 03:51:06;;;;;;;6.53;4.78;;;;;;;24.67;44.18;100727.16;5168431;27;20216;-66
2022/08/24 03:53:32;;;;;;;7.93;5.53;;;;;;;24.68;44.36;100728.81;5167716;27;20031;-66
2022/08/24 03:55:57;;;;;;;11.05;6.95;;;;;;;24.71;44.29;100725.75;5168527;27;20038;-66
2022/08/24 03:58:23;;;;;;;12.27;6.05;;;;;;;24.75;44.56;100724.38;5168050;27;20031;-66
2022/08/24 04:00:48;;;;;;;10.57;6.45;;;;;;;24.79;44.21;100732.94;5168717;27;20023;-66
2022/08/24 04:03:14;;;;;;;12.73;6.22;;;;;;;24.83;44.30;100723.44;5167143;27;20143;-66
2022/08/24 04:05:41;;;;;;;12.25;6.35;;;;;;;24.88;44.51;100731.00;5167860;27;20042;-65
2022/08/24 04:08:07;;;;;;;14.07;6.68;;;;;;;24.92;44.41;100735.88;5167813;27;20057;-66
2022/08/24 04:10:33;;;;;;;12.48;7.20;;;;;;;25.02;43.95;100734.75;5168032;27;20027;-66
2022/08/24 04:13:00;;;;;;;16.70;6.75;;;;;;;25.07;43.65;100735.88;5167305;27;20090;-66
2022/08/24 04:15:26;;;;;;;12.35;6.60;;;;;;;25.13;43.32;100729.72;5171276;27;20046;-66
2022/08/24 04:17:52;;;;;;;15.30;6.93;;;;;;;25.21;43.00;100720.66;5171927;27;20224;-66
2022/08/24 04:20:18;;;;;;;12.45;6.38;;;;;;;25.27;42.88;100738.84;5172291;27;20095;-66
2022/08/24 04:22:43;;;;;;;11.38;5.70;;;;;;;25.35;42.76;100731.66;5171720;27;20238;-66
2022/08/24 04:25:09;;;;;;;11.68;6.20;;;;;;;25.41;42.67;100739.00;5171634;27;20023;-66
2022/08/24 04:27:36;;;;;;;11.48;6.60;;;;;;;25.45;42.40;100734.91;5171711;27;20042;-65
2022/08/24 04:30:02;;;;;;;19.55;7.72;;;;;;;25.50;42.44;100737.06;5172099;27;20038;-65
2022/08/24 04:32:30;;;;;;;12.98;6.88;;;;;;;25.54;42.42;100743.78;5170921;27;20058;-67
2022/08/24 04:34:57;;;;;;;14.73;7.70;;;;;;;25.55;42.24;100732.75;5170991;27;20311;-64
2022/08/24 04:37:24;;;;;;;15.50;6.90;;;;;;;25.61;42.22;100743.84;5171168;27;20031;-64
2022/08/24 04:39:49;;;;;;;15.15;7.70;;;;;;;25.66;42.10;100744.13;5171811;27;20269;-67
2022/08/24 04:42:16;;;;;;;12.82;6.85;;;;;;;25.72;41.70;100737.94;5171331;27;20023;-67
2022/08/24 04:44:42;;;;;;;14.70;6.70;;;;;;;25.81;41.78;100734.06;5170656;27;20039;-65
2022/08/24 04:47:08;;;;;;;12.35;6.15;;;;;;;25.90;41.29;100743.75;5171479;27;20030;-64
2022/08/24 04:49:34;;;;;;;11.45;6.68;;;;;;;25.94;41.33;100732.53;5170773;27;20128;-64
2022/08/24 04:52:00;;;;;;;16.23;7.07;;;;;;;26.02;41.25;100735.97;5171311;27;20022;-65
2022/08/24 04:54:26;;;;;;;14.32;6.18;;;;;;;26.03;41.04;100736.78;5171707;27;20027;-65
2022/08/24 04:56:51;;;;;;;12.02;6.65;;;;;;;26.01;40.97;100739.72;5170804;27;20054;-65
2022/08/24 04:59:17;;;;;;;10.95;6.40;;;;;;;26.06;41.30;100739.13;5170936;27;20030;-65
2022/08/24 05:01:43;;;;;;;16.83;6.95;;;;;;;26.10;41.07;100729.53;5170923;27;20248;-65
2022/08/24 05:04:08;;;;;;;15.40;7.65;;;;;;;26.15;40.86;100737.16;5171092;27;20110;-65
2022/08/24 05:06:34;;;;;;;12.13;6.60;;;;;;;26.25;40.64;100734.94;5170931;27;20176;-65
2022/08/24 05:09:01;;;;;;;11.23;6.70;;;;;;;26.38;40.41;100734.22;5170977;27;20027;-65
2022/08/24 05:11:27;;;;;;;16.15;6.40;;;;;;;26.75;39.53;100737.63;5171508;27;20023;-65
2022/08/24 05:13:54;;;;;;;14.25;6.40;;;;;;;27.07;39.25;100742.63;5170636;27;20049;-65
2022/08/24 05:16:21;;;;;;;14.40;6.97;;;;;;;27.34;38.57;100734.63;5170474;27;20243;-68
2022/08/24 05:18:47;;;;;;;15.00;5.95;;;;;;;27.55;38.23;100739.13;5170716;27;20043;-64
2022/08/24 05:21:16;;;;;;;13.32;6.55;;;;;;;27.70;37.75;100737.09;5171114;27;20095;-64
2022/08/24 05:23:42;;;;;;;11.52;5.93;;;;;;;27.85;37.43;100734.19;5170549;27;20038;-64
2022/08/24 05:26:11;;;;;;;15.00;6.55;;;;;;;28.05;37.33;100737.97;5170675;27;20093;-65
2022/08/24 05:28:38;;;;;;;15.95;7.28;;;;;;;28.17;37.08;100736.31;5170216;27;20031;-65
2022/08/24 05:31:08;;;;;;;14.70;6.78;;;;;;;28.21;37.08;100743.03;5169719;27;20079;-65
2022/08/24 05:33:34;;;;;;;;;;;;;;;28.18;37.14;100738.00;5171088;27;20022;-68
2022/08/24 05:36:00;;;;;;;10.05;5.32;;;;;;;28.26;36.64;100735.09;5170234;27;19907;-65
2022/08/24 05:38:26;;;;;;;15.45;6.57;;;;;;;28.34;36.56;100739.50;5169547;27;20039;-65
2022/08/24 05:40:51;;;;;;;16.20;6.47;;;;;;;28.38;36.48;100739.91;5169712;27;20154;-65
2022/08/24 05:43:17;;;;;;;17.88;6.63;;;;;;;28.42;36.67;100739.28;5170233;27;20025;-65
2022/08/24 05:45:43;;;;;;;11.52;6.28;;;;;;;28.40;36.80;100743.25;5169588;27;20021;-67
2022/08/24 05:48:08;;;;;;;11.23;5.90;;;;;;;28.41;36.73;100737.59;5169925;27;20018;-67
2022/08/24 05:50:34;;;;;;;14.27;6.45;;;;;;;28.43;36.49;100734.69;5170117;27;20030;-67
2022/08/24 05:52:59;;;;;;;11.95;5.88;;;;;;;28.33;36.36;100740.53;5170294;27;20046;-67
2022/08/24 05:55:25;;;;;;;11.60;6.63;;;;;;;28.14;36.74;100747.66;5169774;27;20025;-67
2022/08/24 05:57:50;;;;;;;15.40;6.75;;;;;;;27.88;37.08;100738.34;5169774;27;20097;-67
2022/08/24 06:00:16;;;;;;;14.32;6.60;;;;;;;27.64;37.51;100740.59;5170629;27;20042;-64
2022/08/24 06:02:42;;;;;;;15.75;6.55;;;;;;;27.50;38.01;100736.19;5169887;27;20239;-67
2022/08/24 06:05:08;;;;;;;13.73;6.18;;;;;;;27.39;38.12;100748.44;5169204;27;20030;-67
2022/08/24 06:07:34;;;;;;;14.27;6.35;;;;;;;27.32;38.03;100745.69;5169476;27;20254;-64
2022/08/24 06:10:00;;;;;;;19.70;6.97;;;;;;;27.27;37.90;100746.28;5170058;27;20022;-64
2022/08/24 06:12:26;;;;;;;23.33;6.07;;;;;;;27.21;38.16;100736.22;5169274;27;20065;-67
2022/08/24 06:14:52;;;;;;;16.50;7.72;;;;;;;27.19;38.29;100742.91;5170071;27;20026;-67
2022/08/24 06:17:17;;;;;;;16.00;6.07;;;;;;;27.16;38.01;100733.28;5169849;27;20027;-67
2022/08/24 06:19:42;;;;;;;17.88;6.70;;;;;;;27.15;38.30;100738.91;5169915;27;20050;-67
2022/08/24 06:22:08;;;;;;;15.10;6.45;;;;;;;27.15;38.17;100733.47;5169730;27;20019;-67
2022/08/24 06:27:22;;;;;;;13.05;5.75;;;;;;;27.10;38.07;100737.66;5169642;27;20022;-67
2022/08/24 06:30:09;;;;;;;17.35;6.18;;;;;;;27.10;38.15;100743.09;5169764;27;20220;-67
2022/08/24 06:32:35;;;;;;;21.75;6.32;;;;;;;27.10;38.15;100739.50;5167494;27;20098;-65
2022/08/24 06:35:01;;;;;;;13.73;5.93;;;;;;;27.10;37.90;100740.38;5169714;27;20094;-67
2022/08/24 06:37:27;;;;;;;24.17;5.90;;;;;;;27.09;37.79;100729.69;5168730;27;20524;-66
2022/08/24 06:39:54;;;;;;;14.10;5.40;;;;;;;27.10;38.39;100742.22;5169489;27;20082;-66
2022/08/24 06:42:19;;;;;;;20.45;6.00;;;;;;;27.11;38.21;100739.34;5169003;27;20030;-66
2022/08/24 06:44:45;;;;;;;15.80;6.45;;;;;;;27.09;38.20;100735.97;5168704;27;20044;-66
2022/08/24 06:47:11;;;;;;;11.13;4.72;;;;;;;27.11;37.96;100738.47;5169327;27;20323;-66
2022/08/24 06:49:37;;;;;;;14.70;6.05;;;;;;;27.11;37.81;100742.06;5168557;27;20031;-66
2022/08/24 06:52:04;;;;;;;14.93;5.38;;;;;;;27.10;38.07;100732.22;5169121;27;20098;-66
2022/08/24 06:54:30;;;;;;;14.65;5.65;;;;;;;27.11;37.99;100736.63;5169188;27;20022;-66
2022/08/24 06:56:57;;;;;;;14.90;6.10;;;;;;;27.13;38.18;100738.31;5169175;27;20094;-66
2022/08/24 06:59:25;;;;;;;12.18;5.38;;;;;;;27.10;38.22;100734.94;5167497;27;20110;-65
2022/08/24 07:01:52;;;;;;;23.33;6.30;;;;;;;27.11;38.25;100744.78;5168232;27;20023;-66
2022/08/24 07:04:17;;;;;;;17.20;5.65;;;;;;;27.14;38.05;100740.81;5166614;27;20061;-66
2022/08/24 07:06:43;;;;;;;17.80;5.80;;;;;;;27.14;38.23;100743.50;5164835;27;20033;-66
2022/08/24 07:09:09;;;;;;;13.10;5.60;;;;;;;27.15;38.15;100742.47;5166047;27;20023;-65
2022/08/24 07:11:35;;;;;;;17.50;6.75;;;;;;;27.16;38.05;100743.31;5168342;27;20027;-66
2022/08/24 07:14:01;;;;;;;10.65;5.68;;;;;;;27.17;38.22;100737.69;5168665;27;20033;-66
2022/08/24 07:16:27;;;;;;;13.65;5.28;;;;;;;27.17;38.12;100731.41;5169101;27;20023;-66
2022/08/24 07:18:52;;;;;;;13.55;4.22;;;;;;;27.18;37.82;100735.78;5150590;27;20015;-66
2022/08/24 07:21:18;;;;;;;12.07;4.55;;;;;;;27.17;37.67;100731.41;5148173;27;20086;-68
2022/08/24 07:23:45;;;;;;;7.75;3.70;;;;;;;27.18;37.24;100727.66;5147710;27;20033;-67
2022/08/24 07:26:15;;;;;;;12.32;3.60;;;;;;;27.17;36.83;100724.09;5148116;27;20031;-67
2022/08/24 07:28:40;;;;;;;16.02;3.22;;;;;;;27.18;36.78;100731.22;5147572;27;20023;-67
2022/08/24 07:31:08;;;;;;;9.20;3.75;;;;;;;27.21;36.28;100725.34;5150662;27;20113;-67
2022/08/24 07:33:35;;;;;;;10.80;3.88;;;;;;;27.24;36.40;100732.28;5167765;27;20097;-66
2022/08/24 07:36:01;;;;;;;9.38;4.13;;;;;;;27.25;36.44;100732.06;5168010;27;20042;-66
2022/08/24 07:38:27;;;;;;;9.85;4.38;;;;;;;27.27;36.56;100729.16;5168485;27;20140;-65
2022/08/24 07:40:52;;;;;;;12.90;3.47;;;;;;;27.27;36.54;100731.88;5168282;27;20114;-66
2022/08/24 07:43:19;;;;;;;8.43;4.15;;;;;;;27.28;36.50;100728.09;5166329;27;20054;-66
2022/08/24 07:45:47;;;;;;;10.05;3.42;;;;;;;27.29;36.20;100724.34;5168369;27;20140;-66
2022/08/24 07:48:13;;;;;;;9.60;2.63;;;;;;;27.32;35.86;100728.56;5169153;27;20023;-67
2022/08/24 07:50:38;;;;;;;10.77;2.83;;;;;;;27.34;36.09;100721.03;5172606;27;20069;-69
2022/08/24 07:53:03;;;;;;;9.48;2.78;;;;;;;27.34;35.84;100721.88;5172612;27;20033;-66
2022/08/24 07:55:29;;;;;;;12.45;2.60;;;;;;;27.37;35.72;100726.91;5171733;27;20030;-66
2022/08/24 07:57:54;;;;;;;8.25;2.95;;;;;;;27.38;35.56;100714.13;5172431;27;20030;-66
2022/08/24 08:00:21;;;;;;;5.80;3.10;;;;;;;27.38;35.71;100717.72;5172498;27;20200;-67
2022/08/24 08:02:47;;;;;;;6.28;2.63;;;;;;;27.39;35.63;100727.53;5172543;27;20072;-66
2022/08/24 08:05:20;;;;;;;5.28;2.65;;;;;;;27.40;35.73;100715.63;5171062;27;20034;-66
2022/08/24 08:07:46;;;;;;;7.60;2.90;;;;;;;27.39;36.01;100723.97;5169844;27;20124;-66
2022/08/24 08:10:12;;;;;;;10.65;3.35;;;;;;;27.42;36.19;100723.56;5171974;27;20110;-65
2022/08/24 08:12:37;;;;;;;8.70;4.18;;;;;;;27.39;35.71;100716.66;5171517;27;20038;-65
2022/08/24 08:15:04;;;;;;;9.77;4.65;;;;;;;27.41;35.78;100717.31;5172081;27;20026;-65
2022/08/24 08:17:30;;;;;;;9.80;5.55;;;;;;;27.42;35.90;100715.41;5171737;27;20259;-65
2022/08/24 08:19:55;;;;;;;15.13;6.05;;;;;;;27.43;35.40;100711.66;5172088;27;20094;-65
2022/08/24 08:25:08;;;;;;;30.88;7.97;;;;;;;27.42;35.81;100713.53;5172241;27;20112;-65
2022/08/24 08:27:34;;;;;;;37.58;10.98;;;;;;;27.44;35.69;100717.91;5153545;27;20223;-66
2022/08/24 08:30:00;;;;;;;25.83;8.70;;;;;;;27.45;35.71;100711.44;5172203;27;20026;-66
2022/08/24 08:32:26;;;;;;;21.73;7.80;;;;;;;27.46;35.56;100724.88;5156722;27;20148;-66
2022/08/24 08:34:52;;;;;;;24.52;8.73;;;;;;;27.46;35.38;100710.44;5168628;27;20030;-66
2022/08/24 08:37:18;;;;;;;16.67;6.65;;;;;;;27.48;35.16;100711.06;5171948;27;20095;-66
2022/08/24 08:39:44;;;;;;;15.63;7.38;;;;;;;27.48;34.74;100708.34;5171620;27;20086;-66
2022/08/24 08:42:21;;;;;;;20.50;8.25;;;;;;;27.49;34.88;100701.88;5171130;27;20047;-66
2022/08/24 08:45:05;;;;;;;12.38;5.70;;;;;;;27.48;34.84;100706.50;5171722;27;20022;-66
2022/08/24 08:47:46;;;;;;;13.50;6.38;;;;;;;27.48;34.86;100705.63;5170927;27;20018;-66
2022/08/24 08:50:47;;;;;;;16.05;6.60;;;;;;;27.48;35.00;100700.19;5170731;27;20106;-65
2022/08/24 08:53:39;;;;;;;9.52;4.82;;;;;;;27.47;34.61;100701.25;5127022;27;20042;-65
2022/08/24 08:56:13;;;;;;;11.88;4.75;;;;;;;27.46;34.75;100702.28;5159181;27;20046;-66
2022/08/24 08:58:52;;;;;;;14.75;5.65;;;;;;;27.47;34.96;100699.38;5171429;27;20022;-66
2022/08/24 09:01:35;;;;;;;9.20;4.38;;;;;;;27.46;34.71;100692.25;5170606;27;20029;-66
2022/08/24 09:04:23;;;;;;;8.43;3.58;;;;;;;27.47;34.48;100693.94;5170265;27;20215;-66
2022/08/24 09:07:36;;;;;;;6.35;3.10;;;;;;;27.48;34.29;100692.03;5171644;27;20132;-67
2022/08/24 09:10:08;;;;;;;10.55;2.58;;;;;;;27.48;33.90;100697.47;5171398;27;20022;-66
2022/08/24 09:13:04;;;;;;;4.53;2.63;;;;;;;27.48;33.24;100689.31;5170932;27;20082;-67
2022/08/24 09:15:54;;;;;;;7.93;2.50;;;;;;;27.49;33.49;100694.56;5170966;27;20046;-67
2022/08/24 09:18:26;;;;;;;4.55;2.80;;;;;;;27.48;33.80;100690.19;5170978;27;20181;-66
2022/08/24 09:21:02;;;;;;;5.18;3.30;;;;;;;27.50;33.70;100687.25;5163073;27;20185;-66
2022/08/24 09:23:33;;;;;;;6.97;2.75;;;;;;;27.51;33.17;100688.94;5159870;27;20046;-66
2022/08/24 09:26:47;;;;;;;6.47;2.83;;;;;;;27.51;33.27;100678.06;5170985;27;20027;-66
2022/08/24 09:29:35;;;;;;;6.63;2.92;;;;;;;27.51;33.57;100670.72;5067342;28;20021;-66
2022/08/24 09:32:42;;;;;;;8.52;3.30;;;;;;;27.52;33.31;100686.00;5067018;28;20103;-66
2022/08/24 09:35:14;;;;;;;7.40;2.78;;;;;;;27.54;33.22;100680.38;5146708;27;20106;-66
2022/08/24 09:37:58;;;;;;;12.43;3.15;;;;;;;27.56;32.73;100672.84;5150076;27;20098;-66
2022/08/24 09:40:45;;;;;;;8.65;3.20;;;;;;;27.57;33.20;100679.97;5150238;27;20027;-66
2022/08/24 09:43:53;;;;;;;10.75;2.80;;;;;;;27.57;32.90;100679.97;5149632;27;20233;-66
2022/08/24 09:46:58;;;;;;;9.20;3.25;;;;;;;27.58;32.75;100692.47;5150177;27;20019;-66
2022/08/24 09:49:57;;;;;;;12.45;2.53;;;;;;;27.59;32.52;100683.28;5144856;27;20035;-66
2022/08/24 09:52:25;;;;;;;4.65;2.05;;;;;;;27.61;32.77;100685.81;5163316;27;20026;-66
2022/08/24 09:55:15;;;;;;;5.55;1.90;;;;;;;27.61;32.63;100675.75;5170130;27;20030;-66
2022/08/24 09:57:59;;;;;;;5.00;1.88;;;;;;;27.63;31.98;100687.28;5169870;27;20185;-66
2022/08/24 10:00:33;;;;;;;8.55;2.20;;;;;;;27.62;32.31;100669.28;5170492;27;20094;-66
2022/08/24 10:03:29;;;;;;;6.38;2.00;;;;;;;27.64;32.45;100677.25;5169634;27;20019;-66
2022/08/24 10:06:07;;;;;;;5.72;1.85;;;;;;;27.62;32.57;100682.06;5170575;27;20121;-66
2022/08/24 10:08:59;;;;;;;5.32;1.88;;;;;;;27.62;32.94;100677.44;5170135;27;20034;-66
2022/08/24 10:11:54;;;;;;;5.38;2.03;;;;;;;27.62;31.99;100677.44;5150812;27;20131;-66
2022/08/24 10:14:58;;;;;;;8.73;2.30;;;;;;;27.64;31.83;100678.09;5169644;27;20049;-66
2022/08/24 10:17:42;;;;;;;5.40;1.73;;;;;;;27.63;32.17;100681.00;5169750;27;20143;-65
2022/08/24 10:20:28;;;;;;;4.22;1.55;;;;;;;27.64;31.83;100677.25;5169397;27;20224;-66
2022/08/24 10:23:05;;;;;;;7.13;2.20;;;;;;;27.66;31.72;100681.44;5170064;27;20167;-66
2022/08/24 10:25:30;;;;;;;4.05;1.98;;;;;;;27.67;31.01;100676.81;5169792;27;20022;-67
2022/08/24 10:28:34;;;;;;;11.73;2.50;;;;;;;27.71;30.38;100678.94;5169632;27;20042;-66
2022/08/24 10:31:10;;;;;;;4.63;1.60;;;;;;;27.71;30.81;100673.50;5168664;27;20093;-68
2022/08/24 10:34:09;;;;;;;2.95;1.70;;;;;;;27.70;30.92;100663.66;5169248;27;20217;-65
2022/08/24 10:36:48;;;;;;;6.47;1.42;;;;;;;27.70;30.79;100673.69;5169374;27;20046;-65
2022/08/24 10:39:51;;;;;;;5.97;2.15;;;;;;;27.69;31.17;100669.31;5169759;27;20087;-67
2022/08/24 10:46:01;;;;;;;5.70;1.98;;;;;;;27.67;31.50;100664.06;5169468;27;20086;-66
2022/08/24 10:48:30;;;;;;;9.25;1.83;;;;;;;27.67;31.68;100658.63;5151404;27;20034;-65
2022/08/24 10:51:08;;;;;;;3.15;1.90;;;;;;;27.67;31.64;100655.06;5169247;27;20042;-65
2022/08/24 10:53:34;;;;;;;3.95;1.85;;;;;;;27.66;31.79;100647.97;5168882;27;20243;-65
2022/08/24 10:56:14;;;;;;;4.13;1.42;;;;;;;27.66;31.52;100654.25;5169514;27;20026;-65
2022/08/24 10:58:42;;;;;;;4.33;1.70;;;;;;;27.66;31.50;100659.69;5167110;27;20022;-65
2022/08/24 11:01:30;;;;;;;6.25;2.15;;;;;;;27.70;31.25;100654.66;5148677;27;20034;-65
2022/08/24 11:04:05;;;;;;;3.88;2.00;;;;;;;27.69;31.59;100659.28;5148188;27;20141;-65
2022/08/24 11:06:38;;;;;;;6.10;2.15;;;;;;;27.71;30.63;100653.63;5148304;27;20042;-65
2022/08/24 11:09:08;;;;;;;1.90;1.55;;;;;;;27.71;30.94;100657.19;5148089;27;20022;-65
2022/08/24 11:11:38;;;;;;;6.78;1.88;;;;;;;27.71;30.68;100657.19;5148478;27;20027;-65
2022/08/24 11:14:06;;;;;;;5.38;1.98;;;;;;;27.72;31.18;100645.25;5148126;27;20228;-65
2022/08/24 11:16:42;;;;;;;5.82;1.90;;;;;;;27.74;31.58;100649.63;5148457;27;20093;-65
2022/08/24 11:19:12;;;;;;;5.90;1.90;;;;;;;27.73;30.85;100637.94;5148074;27;20143;-65
2022/08/24 11:21:46;;;;;;;3.78;1.85;;;;;;;27.75;30.53;100648.59;5148112;27;20068;-65
2022/08/24 11:24:25;;;;;;;7.53;2.00;;;;;;;27.78;29.67;100635.44;5147619;27;20094;-65
2022/08/24 11:27:15;;;;;;;5.60;1.58;;;;;;;27.82;30.05;100638.56;5148026;27;20030;-65
2022/08/24 11:29:53;;;;;;;6.30;1.77;;;;;;;27.83;29.79;100634.81;5147988;27;20114;-64
2022/08/24 11:32:35;;;;;;;5.93;1.60;;;;;;;27.84;29.47;100636.50;5147873;27;20042;-64
2022/08/24 11:35:23;;;;;;;5.78;2.15;;;;;;;27.85;29.67;100632.72;5147891;27;20198;-64
2022/08/24 11:37:53;;;;;;;2.97;2.10;;;;;;;27.84;30.00;100633.78;5136178;27;20095;-64
2022/08/24 11:40:24;;;;;;;3.22;1.65;;;;;;;27.86;29.35;100637.94;5167828;27;20067;-64
2022/08/24 11:43:13;;;;;;;9.88;2.30;;;;;;;27.86;29.23;100629.78;5168082;27;20046;-64
2022/08/24 11:45:56;;;;;;;4.53;1.50;;;;;;;27.88;29.36;100624.13;5168678;27;20089;-64
2022/08/24 11:48:42;;;;;;;4.90;1.92;;;;;;;27.87;29.25;100622.44;5168446;27;20152;-65